sensor_id;sensor_type;location;lat;lon;timestamp;pressure;altitude;pressure_sealevel;temperature;humidity
63097;BME280;49185;42.320;23.198;2023-11-19T00:01:43;94877.63;;;2.07;100.00
63097;BME280;49185;42.320;23.198;2023-11-19T00:04:08;94890.75;;;2.00;100.00
63097;BME280;49185;42.320;23.198;2023-11-19T00:06:33;94895.78;;;2.02;100.00
63097;BME280;49185;42.320;23.198;2023-11-19T00:08:59;94896.44;;;2.11;100.00
63097;BME280;49185;42.320;23.198;2023-11-19T00:11:24;94895.22;;;2.06;100.00
63097;BME280;49185;42.320;23.198;2023-11-19T00:13:50;94906.72;;;2.05;100.00
63097;BME280;49185;42.320;23.198;2023-11-19T00:16:15;94896.22;;;2.05;100.00
63097;BME280;49185;42.320;23.198;2023-11-19T00:18:40;94893.38;;;2.07;100.00
63097;BME280;49185;42.320;23.198;2023-11-19T00:21:06;94902.91;;;2.08;100.00
63097;BME280;49185;42.320;23.198;2023-11-19T00:23:31;94910.63;;;2.16;100.00
63097;BME280;49185;42.320;23.198;2023-11-19T00:25:56;94912.28;;;2.24;100.00
63097;BME280;49185;42.320;23.198;2023-11-19T00:28:22;94912.25;;;2.17;100.00
63097;BME280;49185;42.320;23.198;2023-11-19T00:30:47;94911.63;;;2.15;100.00
63097;BME280;49185;42.320;23.198;2023-11-19T00:33:12;94912.84;;;2.19;100.00
63097;BME280;49185;42.320;23.198;2023-11-19T00:35:38;94917.97;;;2.27;98.39
63097;BME280;49185;42.320;23.198;2023-11-19T00:38:03;94921.16;;;2.23;99.87
63097;BME280;49185;42.320;23.198;2023-11-19T00:40:29;94928.75;;;2.11;100.00
63097;BME280;49185;42.320;23.198;2023-11-19T00:42:54;94932.56;;;2.08;99.85
63097;BME280;49185;42.320;23.198;2023-11-19T00:45:19;94940.69;;;2.14;100.00
63097;BME280;49185;42.320;23.198;2023-11-19T00:47:45;94934.38;;;2.08;100.00
63097;BME280;49185;42.320;23.198;2023-11-19T00:50:10;94940.72;;;2.20;100.00
63097;BME280;49185;42.320;23.198;2023-11-19T00:52:36;94933.66;;;2.21;100.00
63097;BME280;49185;42.320;23.198;2023-11-19T00:55:01;94931.03;;;2.21;100.00
63097;BME280;49185;42.320;23.198;2023-11-19T00:57:27;94935.06;;;2.17;99.71
63097;BME280;49185;42.320;23.198;2023-11-19T00:59:52;94938.66;;;2.09;100.00
63097;BME280;49185;42.320;23.198;2023-11-19T01:02:18;94946.41;;;1.96;100.00
63097;BME280;49185;42.320;23.198;2023-11-19T01:04:43;94945.41;;;1.97;100.00
63097;BME280;49185;42.320;23.198;2023-11-19T01:07:08;94938.78;;;2.01;100.00
63097;BME280;49185;42.320;23.198;2023-11-19T01:09:34;94952.31;;;2.04;100.00
63097;BME280;49185;42.320;23.198;2023-11-19T01:11:59;94951.53;;;2.04;100.00
63097;BME280;49185;42.320;23.198;2023-11-19T01:14:24;94949.94;;;2.09;100.00
63097;BME280;49185;42.320;23.198;2023-11-19T01:16:50;94949.75;;;2.11;99.65
63097;BME280;49185;42.320;23.198;2023-11-19T01:19:15;94951.19;;;2.14;99.80
63097;BME280;49185;42.320;23.198;2023-11-19T01:21:41;94943.66;;;2.04;100.00
63097;BME280;49185;42.320;23.198;2023-11-19T01:24:06;94941.25;;;2.09;100.00
63097;BME280;49185;42.320;23.198;2023-11-19T01:26:32;94945.06;;;2.06;100.00
63097;BME280;49185;42.320;23.198;2023-11-19T01:28:57;94944.50;;;2.11;99.45
63097;BME280;49185;42.320;23.198;2023-11-19T01:31:22;94945.88;;;2.07;100.00
63097;BME280;49185;42.320;23.198;2023-11-19T01:33:48;94952.94;;;2.06;100.00
63097;BME280;49185;42.320;23.198;2023-11-19T01:36:13;94958.38;;;2.05;100.00
63097;BME280;49185;42.320;23.198;2023-11-19T01:38:39;94949.09;;;2.02;100.00
63097;BME280;49185;42.320;23.198;2023-11-19T01:41:04;94949.44;;;1.99;100.00
63097;BME280;49185;42.320;23.198;2023-11-19T01:43:34;94956.13;;;2.02;100.00
63097;BME280;49185;42.320;23.198;2023-11-19T01:46:00;94957.50;;;1.98;100.00
63097;BME280;49185;42.320;23.198;2023-11-19T01:48:26;94947.78;;;1.92;100.00
63097;BME280;49185;42.320;23.198;2023-11-19T01:50:52;94944.31;;;1.91;100.00
63097;BME280;49185;42.320;23.198;2023-11-19T01:53:18;94952.19;;;1.91;99.69
63097;BME280;49185;42.320;23.198;2023-11-19T01:55:44;94953.84;;;1.92;99.96
63097;BME280;49185;42.320;23.198;2023-11-19T01:58:11;94968.38;;;1.95;100.00
63097;BME280;49185;42.320;23.198;2023-11-19T02:00:37;94955.78;;;1.83;100.00
63097;BME280;49185;42.320;23.198;2023-11-19T02:03:02;94964.63;;;1.82;100.00
63097;BME280;49185;42.320;23.198;2023-11-19T02:05:28;94975.56;;;1.86;100.00
63097;BME280;49185;42.320;23.198;2023-11-19T02:07:53;94971.16;;;1.86;100.00
63097;BME280;49185;42.320;23.198;2023-11-19T02:10:19;94963.03;;;1.81;100.00
63097;BME280;49185;42.320;23.198;2023-11-19T02:12:44;94950.59;;;1.90;100.00
63097;BME280;49185;42.320;23.198;2023-11-19T02:15:11;94943.03;;;1.80;100.00
63097;BME280;49185;42.320;23.198;2023-11-19T02:17:36;94941.97;;;1.75;100.00
63097;BME280;49185;42.320;23.198;2023-11-19T02:20:02;94941.19;;;1.74;100.00
63097;BME280;49185;42.320;23.198;2023-11-19T02:22:27;94937.47;;;1.90;99.96
63097;BME280;49185;42.320;23.198;2023-11-19T02:24:57;94942.91;;;1.88;99.16
63097;BME280;49185;42.320;23.198;2023-11-19T02:30:04;94946.47;;;1.81;98.10
63097;BME280;49185;42.320;23.198;2023-11-19T02:32:30;94945.66;;;1.80;100.00
63097;BME280;49185;42.320;23.198;2023-11-19T02:34:56;94950.59;;;1.90;98.28
63097;BME280;49185;42.320;23.198;2023-11-19T02:37:21;94957.84;;;1.88;97.52
63097;BME280;49185;42.320;23.198;2023-11-19T02:39:46;94951.75;;;1.87;96.67
63097;BME280;49185;42.320;23.198;2023-11-19T02:42:12;94953.16;;;1.83;99.15
63097;BME280;49185;42.320;23.198;2023-11-19T02:44:37;94939.59;;;1.80;100.00
63097;BME280;49185;42.320;23.198;2023-11-19T02:47:05;94935.84;;;1.67;100.00
63097;BME280;49185;42.320;23.198;2023-11-19T02:49:30;94936.66;;;1.68;100.00
63097;BME280;49185;42.320;23.198;2023-11-19T02:51:56;94933.41;;;1.66;100.00
63097;BME280;49185;42.320;23.198;2023-11-19T02:54:21;94934.53;;;1.78;99.50
63097;BME280;49185;42.320;23.198;2023-11-19T02:56:46;94936.53;;;1.76;100.00
63097;BME280;49185;42.320;23.198;2023-11-19T02:59:12;94942.59;;;1.77;100.00
63097;BME280;49185;42.320;23.198;2023-11-19T03:01:37;94944.28;;;1.63;100.00
63097;BME280;49185;42.320;23.198;2023-11-19T03:04:03;94942.31;;;1.65;100.00
63097;BME280;49185;42.320;23.198;2023-11-19T03:06:28;94940.66;;;1.64;100.00
63097;BME280;49185;42.320;23.198;2023-11-19T03:08:54;94952.16;;;1.63;100.00
63097;BME280;49185;42.320;23.198;2023-11-19T03:11:20;94957.34;;;1.78;100.00
63097;BME280;49185;42.320;23.198;2023-11-19T03:13:45;94959.28;;;1.69;100.00
63097;BME280;49185;42.320;23.198;2023-11-19T03:16:11;94964.63;;;1.61;100.00
63097;BME280;49185;42.320;23.198;2023-11-19T03:18:36;94963.84;;;1.60;100.00
63097;BME280;49185;42.320;23.198;2023-11-19T03:21:01;94964.38;;;1.56;100.00
63097;BME280;49185;42.320;23.198;2023-11-19T03:23:27;94955.41;;;1.65;100.00
63097;BME280;49185;42.320;23.198;2023-11-19T03:25:52;94955.03;;;1.68;100.00
63097;BME280;49185;42.320;23.198;2023-11-19T03:28:18;94966.47;;;1.60;100.00
63097;BME280;49185;42.320;23.198;2023-11-19T03:30:43;94965.06;;;1.64;100.00
63097;BME280;49185;42.320;23.198;2023-11-19T03:33:08;94964.81;;;1.59;100.00
63097;BME280;49185;42.320;23.198;2023-11-19T03:35:34;94960.97;;;1.55;100.00
63097;BME280;49185;42.320;23.198;2023-11-19T03:37:59;94958.59;;;1.60;100.00
63097;BME280;49185;42.320;23.198;2023-11-19T03:40:25;94951.53;;;1.61;99.54
63097;BME280;49185;42.320;23.198;2023-11-19T03:42:50;94954.16;;;1.61;99.72
63097;BME280;49185;42.320;23.198;2023-11-19T03:45:16;94970.91;;;1.60;100.00
63097;BME280;49185;42.320;23.198;2023-11-19T03:47:41;94976.94;;;1.60;100.00
63097;BME280;49185;42.320;23.198;2023-11-19T03:50:07;94979.94;;;1.57;100.00
63097;BME280;49185;42.320;23.198;2023-11-19T03:52:33;94982.75;;;1.56;100.00
63097;BME280;49185;42.320;23.198;2023-11-19T03:54:58;94985.34;;;1.56;100.00
63097;BME280;49185;42.320;23.198;2023-11-19T03:57:24;94999.13;;;1.58;100.00
63097;BME280;49185;42.320;23.198;2023-11-19T03:59:49;95001.75;;;1.58;100.00
63097;BME280;49185;42.320;23.198;2023-11-19T04:02:16;95010.59;;;1.57;100.00
63097;BME280;49185;42.320;23.198;2023-11-19T04:04:41;95009.41;;;1.59;100.00
63097;BME280;49185;42.320;23.198;2023-11-19T04:07:07;95010.22;;;1.60;100.00
63097;BME280;49185;42.320;23.198;2023-11-19T04:09:32;95013.03;;;1.58;99.87
63097;BME280;49185;42.320;23.198;2023-11-19T04:11:59;95011.03;;;1.60;100.00
63097;BME280;49185;42.320;23.198;2023-11-19T04:14:24;95011.22;;;1.59;100.00
63097;BME280;49185;42.320;23.198;2023-11-19T04:16:50;95008.22;;;1.62;99.48
63097;BME280;49185;42.320;23.198;2023-11-19T04:19:15;95010.84;;;1.62;99.39
63097;BME280;49185;42.320;23.198;2023-11-19T04:21:41;95011.66;;;1.62;100.00
63097;BME280;49185;42.320;23.198;2023-11-19T04:24:07;95021.34;;;1.62;100.00
63097;BME280;49185;42.320;23.198;2023-11-19T04:26:33;95014.47;;;1.61;100.00
63097;BME280;49185;42.320;23.198;2023-11-19T04:28:58;95015.03;;;1.56;100.00
63097;BME280;49185;42.320;23.198;2023-11-19T04:31:29;95012.34;;;1.49;100.00
63097;BME280;49185;42.320;23.198;2023-11-19T04:33:54;95016.31;;;1.45;100.00
63097;BME280;49185;42.320;23.198;2023-11-19T04:36:19;95015.66;;;1.58;100.00
63097;BME280;49185;42.320;23.198;2023-11-19T04:38:45;95017.09;;;1.61;100.00
63097;BME280;49185;42.320;23.198;2023-11-19T04:41:10;95031.66;;;1.63;100.00
63097;BME280;49185;42.320;23.198;2023-11-19T04:43:35;95026.94;;;1.59;100.00
63097;BME280;49185;42.320;23.198;2023-11-19T04:46:03;95019.19;;;1.50;100.00
63097;BME280;49185;42.320;23.198;2023-11-19T04:48:29;95026.91;;;1.37;100.00
63097;BME280;49185;42.320;23.198;2023-11-19T04:50:54;95034.97;;;1.36;100.00
63097;BME280;49185;42.320;23.198;2023-11-19T04:53:20;95029.34;;;1.39;100.00
63097;BME280;49185;42.320;23.198;2023-11-19T04:55:45;95019.22;;;1.36;100.00
63097;BME280;49185;42.320;23.198;2023-11-19T04:58:10;95013.53;;;1.32;100.00
63097;BME280;49185;42.320;23.198;2023-11-19T05:00:36;95016.91;;;1.26;100.00
63097;BME280;49185;42.320;23.198;2023-11-19T05:03:01;95016.91;;;1.26;100.00
63097;BME280;49185;42.320;23.198;2023-11-19T05:05:26;95025.00;;;1.31;100.00
63097;BME280;49185;42.320;23.198;2023-11-19T05:07:52;95016.69;;;1.42;100.00
63097;BME280;49185;42.320;23.198;2023-11-19T05:10:17;95017.22;;;1.52;100.00
63097;BME280;49185;42.320;23.198;2023-11-19T05:12:42;95031.94;;;1.54;100.00
63097;BME280;49185;42.320;23.198;2023-11-19T05:15:08;95029.22;;;1.47;100.00
63097;BME280;49185;42.320;23.198;2023-11-19T05:17:34;95038.19;;;1.52;100.00
63097;BME280;49185;42.320;23.198;2023-11-19T05:19:59;95054.41;;;1.63;100.00
63097;BME280;49185;42.320;23.198;2023-11-19T05:22:24;95050.91;;;1.56;100.00
63097;BME280;49185;42.320;23.198;2023-11-19T05:24:50;95043.44;;;1.52;100.00
63097;BME280;49185;42.320;23.198;2023-11-19T05:27:15;95050.53;;;1.59;100.00
63097;BME280;49185;42.320;23.198;2023-11-19T05:29:41;95047.56;;;1.62;100.00
63097;BME280;49185;42.320;23.198;2023-11-19T05:32:06;95044.06;;;1.55;100.00
63097;BME280;49185;42.320;23.198;2023-11-19T05:34:31;95050.44;;;1.67;100.00
63097;BME280;49185;42.320;23.198;2023-11-19T05:36:57;95049.00;;;1.64;99.30
63097;BME280;49185;42.320;23.198;2023-11-19T05:39:23;95046.53;;;1.63;99.36
63097;BME280;49185;42.320;23.198;2023-11-19T05:41:48;95049.81;;;1.65;99.46
63097;BME280;49185;42.320;23.198;2023-11-19T05:44:14;95049.56;;;1.60;100.00
63097;BME280;49185;42.320;23.198;2023-11-19T05:46:39;95039.69;;;1.62;99.83
63097;BME280;49185;42.320;23.198;2023-11-19T05:49:04;95039.13;;;1.66;99.75
63097;BME280;49185;42.320;23.198;2023-11-19T05:51:30;95034.44;;;1.62;100.00
63097;BME280;49185;42.320;23.198;2023-11-19T05:53:55;95038.19;;;1.52;100.00
63097;BME280;49185;42.320;23.198;2023-11-19T05:56:20;95057.59;;;1.58;99.58
63097;BME280;49185;42.320;23.198;2023-11-19T05:58:46;95052.91;;;1.54;100.00
63097;BME280;49185;42.320;23.198;2023-11-19T06:01:11;95039.88;;;1.60;100.00
63097;BME280;49185;42.320;23.198;2023-11-19T06:03:37;95045.03;;;1.54;100.00
63097;BME280;49185;42.320;23.198;2023-11-19T06:06:02;95057.88;;;1.63;99.71
63097;BME280;49185;42.320;23.198;2023-11-19T06:08:28;95054.81;;;1.60;100.00
63097;BME280;49185;42.320;23.198;2023-11-19T06:10:53;95072.16;;;1.61;100.00
63097;BME280;49185;42.320;23.198;2023-11-19T06:13:18;95073.16;;;1.60;98.28
63097;BME280;49185;42.320;23.198;2023-11-19T06:15:44;95078.41;;;1.60;99.23
63097;BME280;49185;42.320;23.198;2023-11-19T06:18:10;95077.03;;;1.64;99.22
63097;BME280;49185;42.320;23.198;2023-11-19T06:20:35;95084.81;;;1.72;99.92
63097;BME280;49185;42.320;23.198;2023-11-19T06:23:01;95080.72;;;1.69;97.33
63097;BME280;49185;42.320;23.198;2023-11-19T06:25:26;95068.38;;;1.63;100.00
63097;BME280;49185;42.320;23.198;2023-11-19T06:27:52;95079.22;;;1.60;99.56
63097;BME280;49185;42.320;23.198;2023-11-19T06:30:18;95081.22;;;1.58;100.00
63097;BME280;49185;42.320;23.198;2023-11-19T06:32:44;95077.97;;;1.56;100.00
63097;BME280;49185;42.320;23.198;2023-11-19T06:35:09;95074.50;;;1.56;100.00
63097;BME280;49185;42.320;23.198;2023-11-19T06:37:35;95078.78;;;1.57;100.00
63097;BME280;49185;42.320;23.198;2023-11-19T06:40:01;95079.75;;;1.56;100.00
63097;BME280;49185;42.320;23.198;2023-11-19T06:42:27;95069.00;;;1.50;100.00
63097;BME280;49185;42.320;23.198;2023-11-19T06:44:52;95073.78;;;1.62;100.00
63097;BME280;49185;42.320;23.198;2023-11-19T06:47:17;95081.59;;;1.77;100.00
63097;BME280;49185;42.320;23.198;2023-11-19T06:49:46;95090.50;;;1.76;100.00
63097;BME280;49185;42.320;23.198;2023-11-19T06:52:11;95093.47;;;1.73;100.00
63097;BME280;49185;42.320;23.198;2023-11-19T06:54:39;95087.25;;;1.74;100.00
63097;BME280;49185;42.320;23.198;2023-11-19T06:57:04;95089.44;;;1.70;100.00
63097;BME280;49185;42.320;23.198;2023-11-19T06:59:30;95080.72;;;1.69;100.00
63097;BME280;49185;42.320;23.198;2023-11-19T07:01:55;95082.91;;;1.66;100.00
63097;BME280;49185;42.320;23.198;2023-11-19T07:04:21;95086.38;;;1.51;100.00
63097;BME280;49185;42.320;23.198;2023-11-19T07:06:47;95089.34;;;1.48;100.00
63097;BME280;49185;42.320;23.198;2023-11-19T07:09:12;95102.75;;;1.39;100.00
63097;BME280;49185;42.320;23.198;2023-11-19T07:11:39;95093.16;;;1.31;100.00
63097;BME280;49185;42.320;23.198;2023-11-19T07:14:05;95096.16;;;1.28;100.00
63097;BME280;49185;42.320;23.198;2023-11-19T07:16:30;95084.22;;;1.25;100.00
63097;BME280;49185;42.320;23.198;2023-11-19T07:18:56;95106.03;;;1.26;100.00
63097;BME280;49185;42.320;23.198;2023-11-19T07:21:21;95111.88;;;1.28;100.00
63097;BME280;49185;42.320;23.198;2023-11-19T07:23:47;95112.06;;;1.26;100.00
63097;BME280;49185;42.320;23.198;2023-11-19T07:26:12;95107.28;;;1.30;100.00
63097;BME280;49185;42.320;23.198;2023-11-19T07:28:38;95107.28;;;1.30;100.00
63097;BME280;49185;42.320;23.198;2023-11-19T07:31:03;95119.38;;;1.31;100.00
63097;BME280;49185;42.320;23.198;2023-11-19T07:33:29;95115.94;;;1.30;100.00
63097;BME280;49185;42.320;23.198;2023-11-19T07:35:55;95113.13;;;1.32;100.00
63097;BME280;49185;42.320;23.198;2023-11-19T07:38:20;95114.34;;;1.29;100.00
63097;BME280;49185;42.320;23.198;2023-11-19T07:40:45;95122.19;;;1.29;100.00
63097;BME280;49185;42.320;23.198;2023-11-19T07:43:11;95144.78;;;1.30;100.00
63097;BME280;49185;42.320;23.198;2023-11-19T07:45:36;95156.06;;;1.31;100.00
63097;BME280;49185;42.320;23.198;2023-11-19T07:48:02;95154.72;;;1.35;100.00
63097;BME280;49185;42.320;23.198;2023-11-19T07:50:27;95144.13;;;1.43;100.00
63097;BME280;49185;42.320;23.198;2023-11-19T07:52:53;95152.66;;;1.45;100.00
63097;BME280;49185;42.320;23.198;2023-11-19T07:55:18;95139.44;;;1.39;100.00
63097;BME280;49185;42.320;23.198;2023-11-19T07:57:43;95130.13;;;1.51;100.00
63097;BME280;49185;42.320;23.198;2023-11-19T08:00:09;95126.41;;;1.60;99.78
63097;BME280;49185;42.320;23.198;2023-11-19T08:02:35;95127.47;;;1.66;98.76
63097;BME280;49185;42.320;23.198;2023-11-19T08:05:00;95135.53;;;1.64;96.79
63097;BME280;49185;42.320;23.198;2023-11-19T08:07:26;95134.47;;;1.74;97.57
63097;BME280;49185;42.320;23.198;2023-11-19T08:09:51;95123.53;;;1.70;97.52
63097;BME280;49185;42.320;23.198;2023-11-19T08:12:16;95124.69;;;1.67;97.20
63097;BME280;49185;42.320;23.198;2023-11-19T08:14:42;95114.19;;;1.67;97.06
63097;BME280;49185;42.320;23.198;2023-11-19T08:17:08;95126.94;;;1.70;98.84
63097;BME280;49185;42.320;23.198;2023-11-19T08:19:33;95133.34;;;1.68;97.97
63097;BME280;49185;42.320;23.198;2023-11-19T08:21:59;95138.78;;;1.66;97.94
63097;BME280;49185;42.320;23.198;2023-11-19T08:24:24;95139.94;;;1.79;98.58
63097;BME280;49185;42.320;23.198;2023-11-19T08:26:49;95146.06;;;1.86;100.00
63097;BME280;49185;42.320;23.198;2023-11-19T08:29:15;95153.72;;;1.81;100.00
63097;BME280;49185;42.320;23.198;2023-11-19T08:31:40;95162.94;;;1.62;100.00
63097;BME280;49185;42.320;23.198;2023-11-19T08:34:05;95157.25;;;1.58;100.00
63097;BME280;49185;42.320;23.198;2023-11-19T08:36:31;95152.63;;;1.60;100.00
63097;BME280;49185;42.320;23.198;2023-11-19T08:38:56;95149.09;;;1.68;99.47
63097;BME280;49185;42.320;23.198;2023-11-19T08:41:22;95149.28;;;1.66;100.00
63097;BME280;49185;42.320;23.198;2023-11-19T08:43:47;95154.50;;;1.66;98.40
63097;BME280;49185;42.320;23.198;2023-11-19T08:46:13;95168.00;;;1.78;99.37
63097;BME280;49185;42.320;23.198;2023-11-19T08:48:38;95168.34;;;1.75;97.69
63097;BME280;49185;42.320;23.198;2023-11-19T08:51:04;95164.56;;;1.78;100.00
63097;BME280;49185;42.320;23.198;2023-11-19T08:53:30;95172.84;;;1.96;98.64
63097;BME280;49185;42.320;23.198;2023-11-19T08:55:55;95172.66;;;2.13;97.50
63097;BME280;49185;42.320;23.198;2023-11-19T08:58:20;95168.81;;;2.15;96.39
63097;BME280;49185;42.320;23.198;2023-11-19T09:00:46;95174.16;;;2.22;97.28
63097;BME280;49185;42.320;23.198;2023-11-19T09:03:11;95175.47;;;2.33;97.82
63097;BME280;49185;42.320;23.198;2023-11-19T09:05:37;95171.53;;;2.22;95.33
63097;BME280;49185;42.320;23.198;2023-11-19T09:08:02;95176.03;;;2.28;95.65
63097;BME280;49185;42.320;23.198;2023-11-19T09:10:27;95167.00;;;2.16;94.90
63097;BME280;49185;42.320;23.198;2023-11-19T09:12:53;95166.19;;;2.15;95.17
63097;BME280;49185;42.320;23.198;2023-11-19T09:15:18;95167.53;;;2.26;95.58
63097;BME280;49185;42.320;23.198;2023-11-19T09:17:43;95161.28;;;2.27;96.10
63097;BME280;49185;42.320;23.198;2023-11-19T09:20:09;95156.03;;;2.27;96.54
63097;BME280;49185;42.320;23.198;2023-11-19T09:22:35;95152.41;;;2.28;95.61
63097;BME280;49185;42.320;23.198;2023-11-19T09:25:00;95150.03;;;2.33;94.06
63097;BME280;49185;42.320;23.198;2023-11-19T09:27:26;95153.22;;;2.28;93.09
63097;BME280;49185;42.320;23.198;2023-11-19T09:29:51;95151.22;;;2.31;94.49
63097;BME280;49185;42.320;23.198;2023-11-19T09:32:16;95155.69;;;2.52;95.31
63097;BME280;49185;42.320;23.198;2023-11-19T09:34:42;95163.22;;;2.40;95.31
63097;BME280;49185;42.320;23.198;2023-11-19T09:37:07;95162.97;;;2.35;96.70
63097;BME280;49185;42.320;23.198;2023-11-19T09:39:33;95156.78;;;2.42;97.86
63097;BME280;49185;42.320;23.198;2023-11-19T09:41:58;95163.31;;;2.46;97.24
63097;BME280;49185;42.320;23.198;2023-11-19T09:44:24;95144.84;;;2.61;94.16
63097;BME280;49185;42.320;23.198;2023-11-19T09:46:50;95135.41;;;2.67;95.43
63097;BME280;49185;42.320;23.198;2023-11-19T09:49:19;95130.22;;;2.52;95.59
63097;BME280;49185;42.320;23.198;2023-11-19T09:51:46;95122.06;;;2.69;92.89
63097;BME280;49185;42.320;23.198;2023-11-19T09:54:11;95112.06;;;2.79;90.72
63097;BME280;49185;42.320;23.198;2023-11-19T09:56:37;95106.31;;;2.69;93.65
63097;BME280;49185;42.320;23.198;2023-11-19T09:59:05;95115.88;;;2.76;93.09
63097;BME280;49185;42.320;23.198;2023-11-19T10:01:30;95119.84;;;2.94;92.94
63097;BME280;49185;42.320;23.198;2023-11-19T10:03:55;95114.00;;;2.70;96.53
63097;BME280;49185;42.320;23.198;2023-11-19T10:06:21;95106.13;;;2.98;93.71
63097;BME280;49185;42.320;23.198;2023-11-19T10:08:47;95100.16;;;3.11;91.59
63097;BME280;49185;42.320;23.198;2023-11-19T10:11:12;95094.47;;;3.08;93.27
63097;BME280;49185;42.320;23.198;2023-11-19T10:13:38;95080.63;;;3.27;91.85
63097;BME280;49185;42.320;23.198;2023-11-19T10:16:08;95087.03;;;3.53;90.10
63097;BME280;49185;42.320;23.198;2023-11-19T10:18:34;95086.22;;;3.52;91.00
63097;BME280;49185;42.320;23.198;2023-11-19T10:20:59;95099.72;;;3.08;90.36
63097;BME280;49185;42.320;23.198;2023-11-19T10:23:25;95090.75;;;3.65;87.66
63097;BME280;49185;42.320;23.198;2023-11-19T10:25:52;95083.44;;;4.42;82.48
63097;BME280;49185;42.320;23.198;2023-11-19T10:28:18;95074.47;;;5.23;81.67
63097;BME280;49185;42.320;23.198;2023-11-19T10:30:44;95074.72;;;5.08;77.49
63097;BME280;49185;42.320;23.198;2023-11-19T10:33:12;95072.69;;;4.70;80.25
63097;BME280;49185;42.320;23.198;2023-11-19T10:35:56;95073.50;;;4.44;79.18
63097;BME280;49185;42.320;23.198;2023-11-19T10:38:21;95069.44;;;4.28;81.00
63097;BME280;49185;42.320;23.198;2023-11-19T10:40:47;95064.16;;;4.28;83.56
63097;BME280;49185;42.320;23.198;2023-11-19T10:43:12;95061.56;;;4.75;80.57
63097;BME280;49185;42.320;23.198;2023-11-19T10:45:38;95061.34;;;4.83;82.88
63097;BME280;49185;42.320;23.198;2023-11-19T10:48:05;95062.56;;;4.81;80.84
63097;BME280;49185;42.320;23.198;2023-11-19T10:50:31;95057.56;;;5.51;78.12
63097;BME280;49185;42.320;23.198;2023-11-19T10:52:57;95064.97;;;5.09;78.93
63097;BME280;49185;42.320;23.198;2023-11-19T10:55:27;95064.59;;;4.52;80.61
63097;BME280;49185;42.320;23.198;2023-11-19T10:58:03;95076.34;;;4.36;80.62
63097;BME280;49185;42.320;23.198;2023-11-19T11:00:30;95060.94;;;4.60;82.58
63097;BME280;49185;42.320;23.198;2023-11-19T11:03:08;95051.63;;;4.24;82.31
63097;BME280;49185;42.320;23.198;2023-11-19T11:05:34;95047.53;;;4.08;83.18
63097;BME280;49185;42.320;23.198;2023-11-19T11:08:00;95046.97;;;4.66;81.75
63097;BME280;49185;42.320;23.198;2023-11-19T11:10:26;95046.16;;;4.52;81.50
63097;BME280;49185;42.320;23.198;2023-11-19T11:12:52;95052.03;;;4.27;81.63
63097;BME280;49185;42.320;23.198;2023-11-19T11:15:18;95033.53;;;3.94;83.44
63097;BME280;49185;42.320;23.198;2023-11-19T11:17:45;95032.94;;;3.92;83.40
63097;BME280;49185;42.320;23.198;2023-11-19T11:20:11;95021.41;;;4.26;83.22
63097;BME280;49185;42.320;23.198;2023-11-19T11:22:55;95009.25;;;4.32;83.06
63097;BME280;49185;42.320;23.198;2023-11-19T11:28:35;95011.91;;;4.45;81.64
63097;BME280;49185;42.320;23.198;2023-11-19T11:31:15;95009.47;;;4.44;81.46
63097;BME280;49185;42.320;23.198;2023-11-19T11:36:25;95001.53;;;4.77;81.49
63097;BME280;49185;42.320;23.198;2023-11-19T11:38:52;94996.59;;;5.59;78.35
63097;BME280;49185;42.320;23.198;2023-11-19T11:41:22;94998.69;;;5.89;77.07
63097;BME280;49185;42.320;23.198;2023-11-19T11:43:50;95003.75;;;5.90;75.98
63097;BME280;49185;42.320;23.198;2023-11-19T11:49:07;95004.78;;;6.78;72.25
63097;BME280;49185;42.320;23.198;2023-11-19T11:57:13;94984.66;;;6.96;70.43
63097;BME280;49185;42.320;23.198;2023-11-19T12:02:21;94986.00;;;7.05;70.51
63097;BME280;49185;42.320;23.198;2023-11-19T12:04:49;94984.78;;;7.01;68.04
63097;BME280;49185;42.320;23.198;2023-11-19T12:07:20;94985.31;;;7.10;70.73
63097;BME280;49185;42.320;23.198;2023-11-19T12:09:52;94977.97;;;7.30;69.98
63097;BME280;49185;42.320;23.198;2023-11-19T12:12:20;94979.09;;;7.22;67.09
63097;BME280;49185;42.320;23.198;2023-11-19T12:22:27;94970.09;;;5.47;76.67
63097;BME280;49185;42.320;23.198;2023-11-19T12:24:56;94967.56;;;5.21;76.78
63097;BME280;49185;42.320;23.198;2023-11-19T12:27:21;94965.53;;;5.16;76.81
63097;BME280;49185;42.320;23.198;2023-11-19T12:29:47;94977.56;;;5.05;77.46
63097;BME280;49185;42.320;23.198;2023-11-19T12:32:12;94970.06;;;5.02;75.67
63097;BME280;49185;42.320;23.198;2023-11-19T12:34:38;94968.66;;;5.00;77.93
63097;BME280;49185;42.320;23.198;2023-11-19T12:37:03;94968.28;;;4.76;76.70
63097;BME280;49185;42.320;23.198;2023-11-19T12:39:32;94962.81;;;4.71;79.17
63097;BME280;49185;42.320;23.198;2023-11-19T12:41:58;94949.41;;;4.92;76.25
63097;BME280;49185;42.320;23.198;2023-11-19T12:44:23;94939.88;;;4.91;76.09
63097;BME280;49185;42.320;23.198;2023-11-19T12:47:04;94940.06;;;4.90;77.02
63097;BME280;49185;42.320;23.198;2023-11-19T12:49:30;94930.13;;;4.92;76.63
63097;BME280;49185;42.320;23.198;2023-11-19T12:51:55;94933.59;;;4.92;76.80
63097;BME280;49185;42.320;23.198;2023-11-19T12:54:34;94925.06;;;4.90;76.41
63097;BME280;49185;42.320;23.198;2023-11-19T12:57:00;94921.41;;;4.91;75.49
63097;BME280;49185;42.320;23.198;2023-11-19T12:59:26;94922.59;;;5.02;76.16
63097;BME280;49185;42.320;23.198;2023-11-19T13:01:55;94918.56;;;5.00;78.00
63097;BME280;49185;42.320;23.198;2023-11-19T13:04:21;94914.88;;;5.01;74.99
63097;BME280;49185;42.320;23.198;2023-11-19T13:06:46;94921.19;;;5.00;77.67
63097;BME280;49185;42.320;23.198;2023-11-19T13:09:25;94904.94;;;5.03;76.37
63097;BME280;49185;42.320;23.198;2023-11-19T13:11:51;94902.09;;;5.04;77.82
63097;BME280;49185;42.320;23.198;2023-11-19T13:14:16;94898.88;;;4.95;78.15
63097;BME280;49185;42.320;23.198;2023-11-19T13:16:42;94908.81;;;4.93;76.61